createdAt,value
2018-06-24T00:01:28.793Z,6.43
2018-06-24T00:03:57.005Z,6.53
2018-06-24T00:06:25.188Z,6.37
2018-06-24T00:08:53.398Z,6.20
2018-06-24T00:11:21.610Z,6.00
2018-06-24T00:13:49.900Z,7.03
2018-06-24T00:16:18.088Z,6.47
2018-06-24T00:18:46.288Z,6.80
2018-06-24T00:21:14.484Z,7.37
2018-06-24T00:23:42.744Z,6.87
2018-06-24T00:26:10.964Z,7.37
2018-06-24T00:28:39.160Z,7.40
2018-06-24T00:31:07.374Z,7.27
2018-06-24T00:33:35.568Z,7.83
2018-06-24T00:36:03.805Z,8.00
2018-06-24T00:38:32.049Z,7.70
2018-06-24T00:41:00.270Z,7.43
2018-06-24T00:43:28.469Z,7.50
2018-06-24T00:45:56.660Z,7.47
2018-06-24T00:48:24.932Z,8.10
2018-06-24T00:50:53.188Z,8.20
2018-06-24T00:53:21.400Z,7.30
2018-06-24T00:55:49.624Z,7.20
2018-06-24T00:58:17.817Z,7.50
2018-06-24T01:00:46.089Z,7.40
2018-06-24T01:03:14.296Z,7.17
2018-06-24T01:05:42.496Z,7.20
2018-06-24T01:08:10.797Z,7.40
2018-06-24T01:10:39.028Z,7.47
2018-06-24T01:13:07.254Z,7.33
2018-06-24T01:15:35.465Z,6.57
2018-06-24T01:18:03.805Z,6.97
2018-06-24T01:20:32.024Z,6.60
2018-06-24T01:23:00.277Z,6.90
2018-06-24T01:25:28.486Z,6.67
2018-06-24T01:27:56.752Z,6.50
2018-06-24T01:30:25.000Z,7.27
2018-06-24T01:32:53.202Z,7.30
2018-06-24T01:35:21.468Z,6.70
2018-06-24T01:37:49.851Z,6.37
2018-06-24T01:40:18.032Z,6.93
2018-06-24T01:42:46.212Z,7.57
2018-06-24T01:45:14.429Z,7.03
2018-06-24T01:47:42.640Z,6.57
2018-06-24T01:50:10.833Z,7.00
2018-06-24T01:52:39.030Z,7.77
2018-06-24T01:55:07.231Z,7.90
2018-06-24T01:57:35.449Z,8.20
2018-06-24T02:00:03.708Z,7.67
2018-06-24T02:02:32.520Z,7.37
2018-06-24T02:05:00.720Z,7.50
2018-06-24T02:07:28.916Z,7.60
2018-06-24T02:09:57.105Z,7.13
2018-06-24T02:12:25.316Z,6.97
2018-06-24T02:14:53.265Z,7.23
2018-06-24T02:17:21.471Z,7.30
2018-06-24T02:19:49.684Z,7.47
2018-06-24T02:22:17.948Z,7.07
2018-06-24T02:24:46.209Z,7.33
2018-06-24T02:27:14.432Z,7.13
2018-06-24T02:29:42.637Z,7.27
2018-06-24T02:32:10.829Z,6.80
2018-06-24T02:34:39.034Z,6.63
2018-06-24T02:37:07.237Z,6.90
2018-06-24T02:39:35.541Z,6.87
2018-06-24T02:42:03.844Z,6.20
2018-06-24T02:44:32.053Z,7.90
2018-06-24T02:47:00.264Z,6.70
2018-06-24T02:49:28.457Z,7.90
2018-06-24T02:51:56.675Z,7.20
2018-06-24T02:54:24.862Z,7.70
2018-06-24T02:56:53.048Z,7.03
2018-06-24T02:59:21.268Z,7.40
2018-06-24T03:01:49.478Z,7.73
2018-06-24T03:04:17.672Z,7.40
2018-06-24T03:06:45.868Z,7.40
2018-06-24T03:09:14.116Z,7.37
2018-06-24T03:11:42.422Z,7.33
2018-06-24T03:14:10.675Z,7.30
2018-06-24T03:16:38.880Z,7.60
2018-06-24T03:19:07.188Z,7.10
2018-06-24T03:21:35.412Z,6.93
2018-06-24T03:24:03.617Z,6.67
2018-06-24T03:26:31.816Z,6.80
2018-06-24T03:29:00.023Z,6.83
2018-06-24T03:31:28.201Z,7.57
2018-06-24T03:33:56.436Z,6.57
2018-06-24T03:36:24.636Z,6.80
2018-06-24T03:38:52.852Z,6.50
2018-06-24T03:41:21.058Z,6.67
2018-06-24T03:43:49.279Z,6.80
2018-06-24T03:46:17.496Z,6.57
2018-06-24T03:48:45.996Z,6.53
2018-06-24T03:51:14.210Z,6.73
2018-06-24T03:53:42.544Z,6.80
2018-06-24T03:56:11.289Z,6.93
2018-06-24T03:58:38.711Z,6.27
2018-06-24T04:01:07.064Z,6.53
2018-06-24T04:03:35.252Z,6.83
2018-06-24T04:06:03.482Z,6.37
2018-06-24T04:08:31.698Z,6.70
2018-06-24T04:10:59.923Z,6.60
2018-06-24T04:13:28.112Z,7.63
2018-06-24T04:16:06.023Z,7.30
2018-06-24T04:18:42.021Z,6.73
2018-06-24T04:21:12.257Z,7.00
2018-06-24T04:23:41.173Z,6.87
2018-06-24T04:26:10.157Z,7.30
2018-06-24T04:28:38.632Z,7.03
2018-06-24T04:31:07.155Z,6.97
2018-06-24T04:33:35.600Z,7.27
2018-06-24T04:36:04.424Z,6.80
2018-06-24T04:38:32.680Z,6.70
2018-06-24T04:41:01.209Z,6.87
2018-06-24T04:43:29.628Z,7.27
2018-06-24T04:45:57.852Z,9.20
2018-06-24T04:48:26.108Z,7.53
2018-06-24T04:50:54.332Z,6.43
2018-06-24T04:53:22.720Z,6.50
2018-06-24T04:55:51.096Z,6.90
2018-06-24T04:58:19.333Z,6.83
2018-06-24T05:00:47.532Z,6.90
2018-06-24T05:03:15.760Z,6.60
2018-06-24T05:05:44.000Z,6.20
2018-06-24T05:08:12.202Z,6.97
2018-06-24T05:10:40.439Z,6.20
2018-06-24T05:13:08.721Z,6.90
2018-06-24T05:15:36.936Z,6.80
2018-06-24T05:18:05.678Z,6.67
2018-06-24T05:20:33.888Z,6.57
2018-06-24T05:23:02.105Z,6.80
2018-06-24T05:25:30.327Z,6.63
2018-06-24T05:27:58.549Z,6.90
2018-06-24T05:30:26.744Z,6.80
2018-06-24T05:32:54.950Z,6.00
2018-06-24T05:35:23.217Z,6.47
2018-06-24T05:37:51.445Z,6.60
2018-06-24T05:40:19.600Z,6.43
2018-06-24T05:42:47.821Z,6.23
2018-06-24T05:45:16.009Z,6.63
2018-06-24T05:47:44.244Z,6.40
2018-06-24T05:50:12.433Z,6.30
2018-06-24T05:52:40.633Z,6.20
2018-06-24T05:55:08.827Z,6.70
2018-06-24T05:57:37.025Z,5.57
2018-06-24T06:00:06.472Z,5.53
2018-06-24T06:02:34.693Z,5.83
2018-06-24T06:05:02.919Z,5.77
2018-06-24T06:07:31.134Z,5.67
2018-06-24T06:09:59.345Z,6.00
2018-06-24T06:12:27.580Z,6.53
2018-06-24T06:14:56.456Z,6.13
2018-06-24T06:17:24.640Z,5.33
2018-06-24T06:19:52.830Z,5.90
2018-06-24T06:22:21.045Z,5.10
2018-06-24T06:24:49.347Z,4.53
2018-06-24T06:27:17.532Z,5.10
2018-06-24T06:29:45.785Z,4.80
2018-06-24T06:32:13.992Z,5.30
2018-06-24T06:34:42.191Z,5.00
2018-06-24T06:37:10.457Z,4.50
2018-06-24T06:39:38.668Z,5.23
2018-06-24T06:42:07.033Z,4.57
2018-06-24T06:44:35.240Z,4.30
2018-06-24T06:47:03.464Z,4.77
2018-06-24T06:49:31.703Z,5.00
2018-06-24T06:51:59.908Z,4.97
2018-06-24T06:54:28.106Z,9.93
2018-06-24T06:56:56.439Z,6.23
2018-06-24T06:59:24.621Z,12.50
2018-06-24T07:01:52.808Z,5.70
2018-06-24T07:04:21.041Z,4.13
2018-06-24T07:06:49.260Z,4.70
2018-06-24T07:09:17.460Z,4.33
2018-06-24T07:11:45.712Z,3.90
2018-06-24T07:14:13.900Z,5.40
2018-06-24T07:16:42.088Z,5.00
2018-06-24T07:19:10.280Z,3.93
2018-06-24T07:21:38.500Z,3.70
2018-06-24T07:24:06.740Z,3.37
2018-06-24T07:26:34.956Z,3.20
2018-06-24T07:29:03.149Z,3.27
2018-06-24T07:31:31.377Z,6.37
2018-06-24T07:33:59.677Z,4.13
2018-06-24T07:36:27.891Z,5.43
2018-06-24T07:38:56.092Z,3.77
2018-06-24T07:41:24.800Z,4.30
2018-06-24T07:43:52.992Z,3.30
2018-06-24T07:46:21.241Z,5.30
2018-06-24T07:48:49.463Z,5.00
2018-06-24T07:51:17.888Z,3.20
2018-06-24T07:53:46.068Z,2.87
2018-06-24T07:56:14.265Z,2.20
2018-06-24T07:58:42.597Z,1.97
2018-06-24T08:01:10.973Z,2.13
2018-06-24T08:03:39.174Z,1.83
2018-06-24T08:06:07.373Z,2.40
2018-06-24T08:08:35.621Z,1.93
2018-06-24T08:11:03.860Z,1.97
2018-06-24T08:13:31.926Z,2.00
2018-06-24T08:16:00.107Z,2.20
2018-06-24T08:18:28.316Z,2.07
2018-06-24T08:20:56.480Z,2.33
2018-06-24T08:23:24.700Z,2.10
2018-06-24T08:25:52.905Z,3.30
2018-06-24T08:28:21.093Z,3.07
2018-06-24T08:30:49.276Z,3.20
2018-06-24T08:33:17.533Z,3.30
2018-06-24T08:35:45.826Z,3.13
2018-06-24T08:38:14.030Z,2.90
2018-06-24T08:40:42.208Z,2.70
2018-06-24T08:43:10.428Z,3.20
2018-06-24T08:45:38.608Z,3.27
2018-06-24T08:48:06.912Z,2.57
2018-06-24T08:50:35.121Z,2.50
2018-06-24T08:53:03.448Z,5.03
2018-06-24T08:55:31.677Z,2.70
2018-06-24T08:57:59.920Z,2.23
2018-06-24T09:00:28.713Z,2.40
2018-06-24T09:02:56.860Z,2.10
2018-06-24T09:05:25.089Z,1.93
2018-06-24T09:07:53.320Z,2.33
2018-06-24T09:10:21.513Z,2.00
2018-06-24T09:12:50.064Z,1.90
2018-06-24T09:15:18.257Z,1.90
2018-06-24T09:17:46.495Z,2.00
2018-06-24T09:20:14.694Z,2.00
2018-06-24T09:22:42.876Z,2.30
2018-06-24T09:25:11.064Z,2.00
2018-06-24T09:27:39.350Z,2.00
2018-06-24T09:30:07.544Z,2.00
2018-06-24T09:32:35.736Z,2.37
2018-06-24T09:35:03.986Z,2.03
2018-06-24T09:37:32.300Z,2.40
2018-06-24T09:40:00.512Z,2.30
2018-06-24T09:42:29.510Z,2.60
2018-06-24T09:44:57.768Z,2.40
2018-06-24T09:47:26.015Z,2.13
2018-06-24T09:49:53.972Z,2.20
2018-06-24T09:52:22.172Z,2.17
2018-06-24T09:54:50.389Z,2.40
2018-06-24T09:57:18.564Z,2.53
2018-06-24T09:59:46.749Z,1.97
2018-06-24T10:02:14.937Z,2.40
2018-06-24T10:04:43.173Z,2.40
2018-06-24T10:07:11.352Z,8.80
2018-06-24T10:09:39.560Z,7.17
2018-06-24T10:12:08.028Z,7.77
2018-06-24T10:14:36.223Z,3.30
2018-06-24T10:17:04.460Z,2.67
2018-06-24T10:19:32.649Z,3.00
2018-06-24T10:22:00.840Z,4.03
2018-06-24T10:24:29.024Z,2.80
2018-06-24T10:26:57.236Z,3.17
2018-06-24T10:29:25.496Z,2.90
2018-06-24T10:31:53.641Z,3.13
2018-06-24T10:34:21.824Z,2.77
2018-06-24T10:36:49.781Z,3.00
2018-06-24T10:39:17.980Z,3.53
2018-06-24T10:41:46.237Z,2.87
2018-06-24T10:44:14.406Z,3.60
2018-06-24T10:46:42.589Z,3.77
2018-06-24T10:49:10.780Z,4.30
2018-06-24T10:51:38.976Z,4.20
2018-06-24T10:54:07.165Z,4.07
2018-06-24T10:56:35.388Z,3.73
2018-06-24T10:59:03.328Z,4.60
2018-06-24T11:01:31.568Z,4.20
2018-06-24T11:04:00.398Z,3.80
2018-06-24T11:06:28.587Z,3.60
2018-06-24T11:08:56.780Z,4.10
2018-06-24T11:11:24.973Z,4.07
2018-06-24T11:13:53.156Z,4.23
2018-06-24T11:16:21.378Z,3.97
2018-06-24T11:18:49.568Z,4.73
2018-06-24T11:21:17.752Z,5.13
2018-06-24T11:23:45.997Z,5.00
2018-06-24T11:26:14.167Z,5.17
2018-06-24T11:28:42.358Z,5.13
2018-06-24T11:31:10.545Z,5.43
2018-06-24T11:33:38.741Z,5.50
2018-06-24T11:36:06.918Z,5.53
2018-06-24T11:38:35.131Z,5.67
2018-06-24T11:41:03.354Z,4.97
2018-06-24T11:43:31.567Z,5.50
2018-06-24T11:45:59.782Z,5.60
2018-06-24T11:48:28.042Z,4.87
2018-06-24T11:50:56.251Z,5.70
2018-06-24T11:53:24.449Z,4.53
2018-06-24T11:55:52.632Z,5.87
2018-06-24T11:58:20.840Z,5.40
2018-06-24T12:00:49.016Z,5.50
2018-06-24T12:03:17.204Z,5.50
2018-06-24T12:05:45.413Z,5.67
2018-06-24T12:08:13.801Z,5.87
2018-06-24T12:10:42.059Z,5.27
2018-06-24T12:13:11.020Z,5.93
2018-06-24T12:15:39.218Z,4.80
2018-06-24T12:18:07.946Z,6.70
2018-06-24T12:20:36.121Z,5.87
2018-06-24T12:23:04.356Z,6.00
2018-06-24T12:25:32.559Z,6.00
2018-06-24T12:28:00.732Z,5.10
2018-06-24T12:30:28.936Z,5.60
2018-06-24T12:32:57.116Z,5.30
2018-06-24T12:35:25.384Z,5.33
2018-06-24T12:37:53.576Z,4.97
2018-06-24T12:40:27.313Z,5.10
2018-06-24T12:42:55.522Z,4.57
2018-06-24T12:45:23.712Z,4.77
2018-06-24T12:47:51.908Z,4.77
2018-06-24T12:50:20.128Z,4.70
2018-06-24T12:52:48.393Z,4.10
2018-06-24T12:55:16.729Z,4.60
2018-06-24T12:57:44.900Z,5.00
2018-06-24T13:00:13.462Z,5.17
2018-06-24T13:02:41.163Z,5.10
2018-06-24T13:05:09.397Z,5.17
2018-06-24T13:07:37.844Z,4.40
2018-06-24T13:10:06.606Z,4.40
2018-06-24T13:12:34.785Z,3.87
2018-06-24T13:15:03.033Z,4.27
2018-06-24T13:17:31.228Z,4.67
2018-06-24T13:19:59.417Z,4.40
2018-06-24T13:22:27.796Z,4.17
2018-06-24T13:24:55.965Z,4.10
2018-06-24T13:27:24.217Z,4.00
2018-06-24T13:29:52.383Z,3.70
2018-06-24T13:32:20.572Z,3.73
2018-06-24T13:34:48.744Z,4.37
2018-06-24T13:37:16.968Z,3.60
2018-06-24T13:39:45.148Z,3.90
2018-06-24T13:42:13.408Z,3.70
2018-06-24T13:44:41.525Z,3.93
2018-06-24T13:47:09.717Z,3.40
2018-06-24T13:49:38.048Z,4.17
2018-06-24T13:52:06.249Z,4.10
2018-06-24T13:54:34.420Z,3.80
2018-06-24T13:57:02.653Z,3.40
2018-06-24T13:59:30.824Z,3.70
2018-06-24T14:01:59.024Z,4.17
2018-06-24T14:04:27.204Z,4.03
2018-06-24T14:06:55.396Z,4.27
2018-06-24T14:09:23.580Z,3.90
2018-06-24T14:11:51.821Z,4.00
2018-06-24T14:14:20.024Z,4.07
2018-06-24T14:16:48.217Z,4.17
2018-06-24T14:19:16.402Z,4.00
2018-06-24T14:21:44.580Z,3.53
2018-06-24T14:24:12.824Z,3.93
2018-06-24T14:26:41.018Z,3.60
2018-06-24T14:29:09.213Z,4.07
2018-06-24T14:31:37.398Z,4.20
2018-06-24T14:34:05.793Z,3.80
2018-06-24T14:36:34.023Z,3.90
2018-06-24T14:39:02.172Z,4.57
2018-06-24T14:41:30.348Z,4.37
2018-06-24T14:43:58.564Z,3.70
2018-06-24T14:46:26.740Z,3.67
2018-06-24T14:48:54.936Z,3.77
2018-06-24T14:51:23.120Z,3.67
2018-06-24T14:53:51.303Z,3.23
2018-06-24T14:56:19.489Z,3.50
2018-06-24T14:58:47.672Z,3.47
2018-06-24T15:01:15.864Z,4.10
2018-06-24T15:03:44.240Z,14.47
2018-06-24T15:06:12.476Z,4.80
2018-06-24T15:08:40.677Z,4.87
2018-06-24T15:11:08.860Z,4.07
2018-06-24T15:13:37.054Z,4.30
2018-06-24T15:16:05.257Z,4.60
2018-06-24T15:18:33.457Z,4.70
2018-06-24T15:21:01.636Z,4.27
2018-06-24T15:23:29.812Z,4.27
2018-06-24T15:25:57.998Z,4.70
2018-06-24T15:28:26.180Z,6.67
2018-06-24T15:30:54.380Z,4.70
2018-06-24T15:33:22.560Z,4.20
2018-06-24T15:35:50.741Z,4.47
2018-06-24T15:38:18.952Z,4.10
2018-06-24T15:40:47.148Z,4.30
2018-06-24T15:43:15.352Z,4.20
2018-06-24T15:45:43.737Z,4.37
2018-06-24T15:48:11.900Z,4.50
2018-06-24T15:50:40.132Z,4.47
2018-06-24T15:53:08.313Z,4.20
2018-06-24T15:55:36.530Z,4.10
2018-06-24T15:58:04.776Z,4.57
2018-06-24T16:00:32.989Z,4.70
2018-06-24T16:03:01.223Z,4.50
2018-06-24T16:05:29.424Z,4.57
2018-06-24T16:07:57.605Z,4.80
2018-06-24T16:10:25.849Z,5.30
2018-06-24T16:12:54.028Z,5.00
2018-06-24T16:15:22.244Z,4.70
2018-06-24T16:17:50.432Z,5.47
2018-06-24T16:20:18.625Z,5.47
2018-06-24T16:22:46.864Z,5.30
2018-06-24T16:25:15.044Z,5.10
2018-06-24T16:27:43.236Z,4.70
2018-06-24T16:30:11.462Z,6.87
2018-06-24T16:32:39.648Z,5.97
2018-06-24T16:35:07.828Z,5.10
2018-06-24T16:37:36.289Z,5.60
2018-06-24T16:40:04.864Z,5.53
2018-06-24T16:42:33.204Z,5.20
2018-06-24T16:45:01.944Z,4.93
2018-06-24T16:47:30.124Z,4.60
2018-06-24T16:49:58.316Z,5.00
2018-06-24T16:52:26.733Z,4.70
2018-06-24T16:54:55.121Z,4.80
2018-06-24T16:57:23.324Z,4.80
2018-06-24T16:59:51.498Z,4.53
2018-06-24T17:02:19.684Z,4.93
2018-06-24T17:04:47.872Z,5.50
2018-06-24T17:07:16.073Z,7.97
2018-06-24T17:09:44.820Z,6.77
2018-06-24T17:12:13.037Z,7.93
2018-06-24T17:14:41.222Z,7.50
2018-06-24T17:17:09.480Z,5.43
2018-06-24T17:19:37.632Z,5.77
2018-06-24T17:22:05.808Z,5.90
2018-06-24T17:24:34.002Z,5.70
2018-06-24T17:27:02.227Z,5.90
2018-06-24T17:29:30.822Z,5.50
2018-06-24T17:31:58.612Z,4.70
2018-06-24T17:34:26.812Z,4.97
2018-06-24T17:36:55.078Z,4.13
2018-06-24T17:39:23.288Z,3.93
2018-06-24T17:41:51.460Z,3.90
2018-06-24T17:44:19.660Z,4.17
2018-06-24T17:46:47.836Z,4.10
2018-06-24T17:49:16.029Z,5.77
2018-06-24T17:51:44.212Z,4.00
2018-06-24T17:54:12.152Z,4.30
2018-06-24T17:56:40.537Z,4.20
2018-06-24T17:59:08.735Z,3.70
2018-06-24T18:01:36.908Z,3.67
2018-06-24T18:04:05.240Z,4.20
2018-06-24T18:06:33.485Z,4.00
2018-06-24T18:09:01.684Z,4.90
2018-06-24T18:11:29.889Z,5.27
2018-06-24T18:13:58.109Z,3.73
2018-06-24T18:16:26.300Z,4.47
2018-06-24T18:18:54.497Z,3.57
2018-06-24T18:21:22.684Z,3.00
2018-06-24T18:23:50.909Z,3.20
2018-06-24T18:26:19.118Z,4.33
2018-06-24T18:28:47.300Z,3.00
2018-06-24T18:31:15.536Z,3.30
2018-06-24T18:33:43.712Z,3.57
2018-06-24T18:36:11.944Z,2.80
2018-06-24T18:38:40.121Z,2.80
2018-06-24T18:41:08.462Z,2.87
2018-06-24T18:43:36.640Z,5.00
2018-06-24T18:46:05.050Z,3.53
2018-06-24T18:48:33.334Z,2.93
2018-06-24T18:51:01.545Z,2.43
2018-06-24T18:53:29.740Z,2.70
2018-06-24T18:55:57.960Z,2.47
2018-06-24T18:58:26.374Z,4.13
2018-06-24T19:00:54.568Z,3.33
2018-06-24T19:03:22.807Z,3.13
2018-06-24T19:05:51.025Z,2.80
2018-06-24T19:08:19.196Z,2.60
2018-06-24T19:10:47.408Z,2.50
2018-06-24T19:13:15.576Z,2.13
2018-06-24T19:15:43.777Z,1.90
2018-06-24T19:18:11.949Z,2.03
2018-06-24T19:20:40.157Z,1.87
2018-06-24T19:23:08.344Z,2.30
2018-06-24T19:25:36.532Z,1.93
2018-06-24T19:28:04.924Z,2.20
2018-06-24T19:30:33.133Z,1.63
2018-06-24T19:33:01.336Z,1.93
2018-06-24T19:35:29.520Z,1.83
2018-06-24T19:37:57.721Z,1.90
2018-06-24T19:40:25.943Z,2.10
2018-06-24T19:42:54.148Z,3.43
2018-06-24T19:45:22.326Z,2.00
2018-06-24T19:47:50.780Z,1.80
2018-06-24T19:50:18.957Z,1.77
2018-06-24T19:52:47.288Z,1.47
2018-06-24T19:55:16.341Z,1.90
2018-06-24T19:57:44.529Z,1.70
2018-06-24T20:00:12.705Z,1.97
2018-06-24T20:02:40.900Z,1.83
2018-06-24T20:05:08.848Z,2.07
2018-06-24T20:07:37.045Z,2.67
2018-06-24T20:10:05.012Z,1.90
2018-06-24T20:12:33.267Z,1.97
2018-06-24T20:15:01.457Z,2.10
2018-06-24T20:17:29.675Z,1.80
2018-06-24T20:19:57.849Z,2.10
2018-06-24T20:22:26.056Z,1.70
2018-06-24T20:24:54.378Z,2.17
2018-06-24T20:27:22.573Z,1.77
2018-06-24T20:29:50.772Z,2.17
2018-06-24T20:32:18.945Z,1.90
2018-06-24T20:34:47.194Z,1.90
2018-06-24T20:37:15.340Z,1.83
2018-06-24T20:39:43.531Z,1.90
2018-06-24T20:42:11.720Z,1.70
2018-06-24T20:44:39.928Z,1.30
2018-06-24T20:47:08.116Z,1.20
2018-06-24T20:49:36.304Z,1.30
2018-06-24T20:52:04.508Z,1.80
2018-06-24T20:54:32.744Z,1.50
2018-06-24T20:57:00.917Z,1.53
2018-06-24T20:59:29.131Z,1.30
2018-06-24T21:01:57.304Z,1.70
2018-06-24T21:04:25.506Z,1.50
2018-06-24T21:06:53.697Z,1.60
2018-06-24T21:09:21.912Z,1.50
2018-06-24T21:11:50.139Z,1.50
2018-06-24T21:14:18.329Z,1.70
2018-06-24T21:16:46.524Z,1.70
2018-06-24T21:19:14.700Z,1.40
2018-06-24T21:21:42.919Z,1.70
2018-06-24T21:24:11.104Z,1.60
2018-06-24T21:26:39.315Z,1.33
2018-06-24T21:29:07.244Z,1.50
2018-06-24T21:31:35.474Z,1.50
2018-06-24T21:34:03.404Z,1.80
2018-06-24T21:36:31.692Z,1.70
2018-06-24T21:38:59.876Z,1.50
2018-06-24T21:41:28.073Z,1.70
2018-06-24T21:43:56.253Z,1.40
2018-06-24T21:46:24.442Z,1.73
2018-06-24T21:48:52.616Z,1.40
2018-06-24T21:51:20.800Z,1.53
2018-06-24T21:53:48.996Z,1.60
2018-06-24T21:56:17.200Z,1.50
2018-06-24T21:58:45.372Z,1.63
2018-06-24T22:01:13.593Z,1.70
2018-06-24T22:03:41.776Z,1.50
2018-06-24T22:06:09.971Z,1.50
2018-06-24T22:08:38.189Z,1.47
2018-06-24T22:11:06.584Z,1.50
2018-06-24T22:13:34.776Z,1.60
2018-06-24T22:16:03.000Z,1.50
2018-06-24T22:18:31.193Z,1.73
2018-06-24T22:21:01.424Z,1.37
2018-06-24T22:23:29.684Z,1.43
2018-06-24T22:25:57.868Z,1.63
2018-06-24T22:28:26.204Z,1.70
2018-06-24T22:30:54.421Z,1.40
2018-06-24T22:33:22.620Z,1.80
2018-06-24T22:35:50.792Z,1.67
2018-06-24T22:38:18.984Z,1.57
2018-06-24T22:40:47.204Z,1.60
2018-06-24T22:43:15.390Z,1.60
2018-06-24T22:45:43.780Z,1.53
2018-06-24T22:48:11.969Z,1.50
2018-06-24T22:50:40.173Z,1.80
2018-06-24T22:53:08.393Z,1.57
2018-06-24T22:55:36.573Z,1.50
2018-06-24T22:58:04.800Z,1.80
2018-06-24T23:00:32.997Z,1.80
2018-06-24T23:03:02.295Z,1.73
2018-06-24T23:05:30.517Z,1.70
2018-06-24T23:07:58.696Z,1.80
2018-06-24T23:10:27.049Z,1.80
2018-06-24T23:12:55.244Z,1.47
2018-06-24T23:15:23.416Z,1.70
2018-06-24T23:17:51.596Z,1.53
2018-06-24T23:20:19.776Z,1.80
2018-06-24T23:22:48.035Z,1.83
2018-06-24T23:25:16.217Z,1.50
2018-06-24T23:27:44.673Z,1.70
2018-06-24T23:30:13.072Z,2.00
2018-06-24T23:32:41.257Z,1.80
2018-06-24T23:35:09.453Z,1.60
2018-06-24T23:37:37.654Z,1.80
2018-06-24T23:40:05.884Z,1.70
2018-06-24T23:42:34.065Z,1.90
2018-06-24T23:45:02.328Z,1.80
2018-06-24T23:47:30.500Z,1.60
2018-06-24T23:49:58.700Z,1.63
2018-06-24T23:52:26.894Z,1.90
2018-06-24T23:54:55.100Z,1.63
2018-06-24T23:57:23.268Z,1.57
2018-06-24T23:59:51.480Z,1.70
